Time;durP1;ratioP1;P1;durP2;ratioP2;P2;SDS_P1;SDS_P2;PMS_P1;PMS_P2;Temp;Humidity;BMP_temperature;BMP_pressure;BME280_temperature;BME280_humidity;BME280_pressure;Samples;Min_cycle;Max_cycle;Signal;HPM_P1;HPM_P2
2023/09/05 00:00:11;;;;;;;;;;;;;;;;;;4980222;28;19933;-84
2023/09/05 00:02:43;;;;;;;;;;;;;;;;;;4966674;28;20483;-84
2023/09/05 00:05:32;;;;;;;;;;;;;;;;;;4980557;28;19929;-84
2023/09/05 00:07:59;;;;;;;;;;;;;;;;;;4966182;28;20099;-84
2023/09/05 00:10:25;;;;;;;;;;;;;;;;;;4968437;28;20443;-84
2023/09/05 00:12:53;;;;;;;;;;;;;;;;;;4961220;28;19930;-84
2023/09/05 00:15:20;;;;;;;;;;;;;;;;;;4954291;28;20317;-84
2023/09/05 00:17:47;;;;;;;;;;;;;;;;;;4950661;28;20369;-84
2023/09/05 00:20:15;;;;;;;;;;;;;;;;;;4987091;28;20422;-84
2023/09/05 00:22:45;;;;;;;;;;;;;;;;;;4968470;28;19934;-85
2023/09/05 00:25:31;;;;;;;;;;;;;;;;;;4970217;28;19925;-84
2023/09/05 00:28:13;;;;;;;;;;;;;;;;;;5001322;28;20399;-84
2023/09/05 00:30:42;;;;;;;;;;;;;;;;;;4986549;28;19921;-84
2023/09/05 00:33:09;;;;;;;;;;;;;;;;;;4971910;28;20024;-84
2023/09/05 00:35:35;;;;;;;;;;;;;;;;;;4983570;28;19932;-83
2023/09/05 00:38:01;;;;;;;;;;;;;;;;;;4970714;28;20376;-84
2023/09/05 00:40:27;;;;;;;;;;;;;;;;;;4967295;28;19926;-84
2023/09/05 00:42:58;;;;;;;;;;;;;;;;;;5006679;28;19937;-84
2023/09/05 00:45:24;;;;;;;;;;;;;;;;;;4983978;28;19925;-84
2023/09/05 00:47:52;;;;;;;;;;;;;;;;;;5003791;28;20030;-85
2023/09/05 00:53:34;;;;;;;;;;;;;;;;;;4920737;29;19941;-84
2023/09/05 00:56:02;;;;;;;;;;;;;;;;;;4912811;28;19933;-84
2023/09/05 00:58:29;;;;;;;;;;;;;;;;;;4986205;28;19952;-83
2023/09/05 01:00:57;;;;;;;;;;;;;;;;;;4978107;28;19985;-84
2023/09/05 01:03:24;;;;;;;;;;;;;;;;;;4978321;28;19945;-84
2023/09/05 01:05:50;;;;;;;;;;;;;;;;;;4964716;28;19929;-84
2023/09/05 01:08:18;;;;;;;;;;;;;;;;;;4996089;28;19930;-84
2023/09/05 01:10:46;;;;;;;;;;;;;;;;;;4986024;28;20001;-84
2023/09/05 01:13:15;;;;;;;;;;;;;;;;;;5001225;28;19955;-84
2023/09/05 01:15:44;;;;;;;;;;;;;;;;;;4983857;28;19925;-84
2023/09/05 01:18:13;;;;;;;;;;;;;;;;;;4984268;28;19977;-84
2023/09/05 01:20:41;;;;;;;;;;;;;;;;;;4986177;28;20402;-84
2023/09/05 01:23:17;;;;;;;;;;;;;;;;;;4984577;28;20373;-84
2023/09/05 01:25:43;;;;;;;;;;;;;;;;;;4983281;28;19933;-83
2023/09/05 01:28:11;;;;;;;;;;;;;;;;;;4998266;28;20364;-84
2023/09/05 01:30:38;;;;;;;;;;;;;;;;;;4980305;28;20361;-84
2023/09/05 01:33:05;;;;;;;;;;;;;;;;;;4982596;28;19930;-84
2023/09/05 01:35:32;;;;;;;;;;;;;;;;;;4980570;28;19926;-84
2023/09/05 01:37:59;;;;;;;;;;;;;;;;;;4979676;28;21873;-84
2023/09/05 01:40:25;;;;;;;;;;;;;;;;;;4967643;28;19921;-84
2023/09/05 01:42:52;;;;;;;;;;;;;;;;;;4965834;28;19929;-84
2023/09/05 01:45:19;;;;;;;;;;;;;;;;;;4981740;28;20323;-83
2023/09/05 01:47:47;;;;;;;;;;;;;;;;;;4978606;28;20467;-84
2023/09/05 01:50:13;;;;;;;;;;;;;;;;;;4995874;28;19926;-84
2023/09/05 01:52:50;;;;;;;;;;;;;;;;;;;;;
2023/09/05 01:55:25;;;;;;;;;;;;;;;;;;4995880;28;19930;-84
2023/09/05 01:57:54;;;;;;;;;;;;;;;;;;4997682;28;19937;-84
2023/09/05 02:00:21;;;;;;;;;;;;;;;;;;4964353;28;19930;-84
2023/09/05 02:02:48;;;;;;;;;;;;;;;;;;4982983;28;20407;-84
2023/09/05 02:05:15;;;;;;;;;;;;;;;;;;4980449;28;19925;-84
2023/09/05 02:07:57;;;;;;;;;;;;;;;;;;4996269;28;19925;-84
2023/09/05 02:10:24;;;;;;;;;;;;;;;;;;4963228;28;20312;-84
2023/09/05 02:12:55;;;;;;;;;;;;;;;;;;4994614;28;19921;-84
2023/09/05 02:15:23;;;;;;;;;;;;;;;;;;4964831;28;19932;-84
2023/09/05 02:17:49;;;;;;;;;;;;;;;;;;4963770;28;19925;-84
2023/09/05 02:20:23;;;;;;;;;;;;;;;;;;4964557;28;20024;-84
2023/09/05 02:25:54;;;;;;;;;;;;;;;;;;4905794;29;20005;-85
2023/09/05 02:28:20;;;;;;;;;;;;;;;;;;4901262;29;19959;-84
2023/09/05 02:30:47;;;;;;;;;;;;;;;;;;4904513;29;19931;-84
2023/09/05 02:33:13;;;;;;;;;;;;;;;;;;4905866;29;20346;-84
2023/09/05 02:35:41;;;;;;;;;;;;;;;;;;4905226;29;19927;-84
2023/09/05 02:38:16;;;;;;;;;;;;;;;;;;4971069;28;19929;-84
2023/09/05 02:40:43;;;;;;;;;;;;;;;;;;4966899;28;19948;-85
2023/09/05 02:43:11;;;;;;;;;;;;;;;;;;4979829;28;20526;-84
2023/09/05 02:45:38;;;;;;;;;;;;;;;;;;4981085;28;20336;-84
2023/09/05 02:48:04;;;;;;;;;;;;;;;;;;4963774;28;19936;-84
2023/09/05 02:50:31;;;;;;;;;;;;;;;;;;4983349;28;20005;-83
2023/09/05 02:52:57;;;;;;;;;;;;;;;;;;4976643;28;19928;-84
2023/09/05 02:55:25;;;;;;;;;;;;;;;;;;4974519;28;20619;-84
2023/09/05 02:57:52;;;;;;;;;;;;;;;;;;4979078;28;19921;-84
2023/09/05 03:00:19;;;;;;;;;;;;;;;;;;4984243;28;20411;-84
2023/09/05 03:02:45;;;;;;;;;;;;;;;;;;4979061;28;19930;-84
2023/09/05 03:05:13;;;;;;;;;;;;;;;;;;4965254;28;19925;-84
2023/09/05 03:07:50;;;;;;;;;;;;;;;;;;5000122;28;19978;-85
2023/09/05 03:10:17;;;;;;;;;;;;;;;;;;5000679;28;19925;-84
2023/09/05 03:12:43;;;;;;;;;;;;;;;;;;4980629;28;19925;-84
2023/09/05 03:15:09;;;;;;;;;;;;;;;;;;4984941;28;19925;-83
2023/09/05 03:17:35;;;;;;;;;;;;;;;;;;4965130;28;20402;-84
2023/09/05 03:23:00;;;;;;;;;;;;;;;;;;4973588;28;19933;-83
2023/09/05 03:25:27;;;;;;;;;;;;;;;;;;4983727;28;20403;-84
2023/09/05 03:27:57;;;;;;;;;;;;;;;;;;4998085;28;19932;-84
2023/09/05 03:30:24;;;;;;;;;;;;;;;;;;4965609;28;19930;-84
2023/09/05 03:32:50;;;;;;;;;;;;;;;;;;4980049;28;19932;-84
2023/09/05 03:35:18;;;;;;;;;;;;;;;;;;4980498;28;19922;-84
2023/09/05 03:40:45;;;;;;;;;;;;;;;;;;4981829;28;19930;-84
2023/09/05 03:43:12;;;;;;;;;;;;;;;;;;4965481;28;19933;-84
2023/09/05 03:45:40;;;;;;;;;;;;;;;;;;4978593;28;19936;-84
2023/09/05 03:48:07;;;;;;;;;;;;;;;;;;4998571;28;19937;-84
2023/09/05 03:50:35;;;;;;;;;;;;;;;;;;4981136;28;19962;-84
2023/09/05 03:53:02;;;;;;;;;;;;;;;;;;4983051;28;19925;-83
2023/09/05 03:55:30;;;;;;;;;;;;;;;;;;4986294;28;19980;-84
2023/09/05 03:57:58;;;;;;;;;;;;;;;;;;4983534;28;20019;-84
2023/09/05 04:00:25;;;;;;;;;;;;;;;;;;4961204;28;19930;-84
2023/09/05 04:02:52;;;;;;;;;;;;;;;;;;4963392;28;19925;-84
2023/09/05 04:05:21;;;;;;;;;;;;;;;;;;4998543;28;19926;-84
2023/09/05 04:07:51;;;;;;;;;;;;;;;;;;4977648;28;19937;-84
2023/09/05 04:10:18;;;;;;;;;;;;;;;;;;5004134;28;19984;-84
2023/09/05 04:12:47;;;;;;;;;;;;;;;;;;4981694;28;19938;-84
2023/09/05 04:15:29;;;;;;;;;;;;;;;;;;;;;
2023/09/05 04:18:18;;;;;;;;;;;;;;;;;;4942059;28;19932;-84
2023/09/05 04:20:44;;;;;;;;;;;;;;;;;;4984403;28;19925;-84
2023/09/05 04:23:11;;;;;;;;;;;;;;;;;;4982215;28;19933;-84
2023/09/05 04:25:40;;;;;;;;;;;;;;;;;;4978838;28;20289;-84
2023/09/05 04:28:06;;;;;;;;;;;;;;;;;;4987913;28;19929;-84
2023/09/05 04:30:33;;;;;;;;;;;;;;;;;;4982546;28;19933;-84
2023/09/05 04:33:02;;;;;;;;;;;;;;;;;;4981069;28;19932;-84
2023/09/05 04:35:31;;;;;;;;;;;;;;;;;;4982840;28;20038;-84
2023/09/05 04:37:59;;;;;;;;;;;;;;;;;;4983345;28;20357;-83
2023/09/05 04:40:36;;;;;;;;;;;;;;;;;;;;;
2023/09/05 04:43:09;;;;;;;;;;;;;;;;;;4985086;28;19954;-84
2023/09/05 04:45:35;;;;;;;;;;;;;;;;;;4987253;28;19925;-84
2023/09/05 04:48:02;;;;;;;;;;;;;;;;;;4967430;28;19930;-84
2023/09/05 04:50:29;;;;;;;;;;;;;;;;;;4968649;28;20093;-84
2023/09/05 04:52:57;;;;;;;;;;;;;;;;;;4987467;28;19957;-84
2023/09/05 04:58:34;;;;;;;;;;;;;;;;;;5000765;28;20007;-85
2023/09/05 05:01:09;;;;;;;;;;;;;;;;;;4970861;28;19932;-85
2023/09/05 05:03:42;;;;;;;;;;;;;;;;;;4985372;28;19969;-85
2023/09/05 05:06:11;;;;;;;;;;;;;;;;;;4970178;28;19937;-85
2023/09/05 05:08:57;;;;;;;;;;;;;;;;;;4968028;28;20438;-85
2023/09/05 05:11:24;;;;;;;;;;;;;;;;;;4982897;28;19926;-84
2023/09/05 05:13:50;;;;;;;;;;;;;;;;;;4983635;28;19926;-84
2023/09/05 05:16:20;;;;;;;;;;;;;;;;;;4971632;28;19948;-85
2023/09/05 05:18:46;;;;;;;;;;;;;;;;;;4992214;28;19933;-85
2023/09/05 05:21:13;;;;;;;;;;;;;;;;;;4981918;28;19926;-85
2023/09/05 05:23:40;;;;;;;;;;;;;;;;;;4969823;28;19930;-85
2023/09/05 05:26:07;;;;;;;;;;;;;;;;;;4987919;28;19929;-84
2023/09/05 05:28:33;;;;;;;;;;;;;;;;;;4970161;28;19925;-85
2023/09/05 05:30:59;;;;;;;;;;;;;;;;;;4981039;28;19985;-85
2023/09/05 05:33:25;;;;;;;;;;;;;;;;;;4949776;28;19961;-84
2023/09/05 05:35:53;;;;;;;;;;;;;;;;;;4965736;28;19984;-85
2023/09/05 05:38:20;;;;;;;;;;;;;;;;;;4984209;28;19964;-85
2023/09/05 05:40:48;;;;;;;;;;;;;;;;;;4970176;28;19925;-85
2023/09/05 05:43:15;;;;;;;;;;;;;;;;;;4980812;28;21492;-84
2023/09/05 05:45:42;;;;;;;;;;;;;;;;;;4980234;28;19925;-85
2023/09/05 05:48:12;;;;;;;;;;;;;;;;;;4977966;28;19933;-85
2023/09/05 05:50:38;;;;;;;;;;;;;;;;;;4970140;28;19973;-85
2023/09/05 05:53:06;;;;;;;;;;;;;;;;;;4965661;28;19929;-85
2023/09/05 05:55:33;;;;;;;;;;;;;;;;;;4985253;28;19925;-85
2023/09/05 05:58:04;;;;;;;;;;;;;;;;;;4963140;28;19937;-89
2023/09/05 06:00:30;;;;;;;;;;;;;;;;;;4980068;28;19925;-85
2023/09/05 06:02:55;;;;;;;;;;;;;;;;;;4981686;28;19952;-85
2023/09/05 06:05:22;;;;;;;;;;;;;;;;;;4983192;28;20020;-85
2023/09/05 06:08:08;;;;;;;;;;;;;;;;;;4987650;28;20299;-85
2023/09/05 06:10:38;;;;;;;;;;;;;;;;;;4974546;28;19969;-85
2023/09/05 06:13:04;;;;;;;;;;;;;;;;;;4988897;28;19921;-84
2023/09/05 06:15:31;;;;;;;;;;;;;;;;;;4987147;28;19925;-85
2023/09/05 06:17:57;;;;;;;;;;;;;;;;;;4985696;28;20344;-84
2023/09/05 06:20:23;;;;;;;;;;;;;;;;;;4973760;28;19925;-85
2023/09/05 06:22:49;;;;;;;;;;;;;;;;;;4965069;28;19976;-84
2023/09/05 06:25:17;;;;;;;;;;;;;;;;;;4962665;28;20317;-84
2023/09/05 06:27:44;;;;;;;;;;;;;;;;;;4948513;28;19930;-84
2023/09/05 06:30:10;;;;;;;;;;;;;;;;;;4946126;28;19965;-85
2023/09/05 06:32:37;;;;;;;;;;;;;;;;;;4965491;28;19964;-85
2023/09/05 06:35:05;;;;;;;;;;;;;;;;;;4971084;28;20007;-85
2023/09/05 06:37:33;;;;;;;;;;;;;;;;;;4968318;28;19972;-85
2023/09/05 06:40:01;;;;;;;;;;;;;;;;;;4955944;28;19962;-84
2023/09/05 06:42:27;;;;;;;;;;;;;;;;;;4963057;28;19922;-85
2023/09/05 06:44:53;;;;;;;;;;;;;;;;;;4961946;28;20700;-85
2023/09/05 06:47:19;;;;;;;;;;;;;;;;;;4965973;28;19984;-84
2023/09/05 06:49:46;;;;;;;;;;;;;;;;;;4949980;28;19961;-85
2023/09/05 06:52:13;;;;;;;;;;;;;;;;;;4969933;28;20360;-85
2023/09/05 06:54:40;;;;;;;;;;;;;;;;;;4950799;28;19927;-84
2023/09/05 06:57:11;;;;;;;;;;;;;;;;;;4966861;28;19922;-84
2023/09/05 06:59:38;;;;;;;;;;;;;;;;;;4966718;28;20009;-85
2023/09/05 07:02:04;;;;;;;;;;;;;;;;;;4951952;28;20005;-85
2023/09/05 07:04:34;;;;;;;;;;;;;;;;;;4966761;28;20012;-85
2023/09/05 07:07:01;;;;;;;;;;;;;;;;;;4947958;28;20576;-85
2023/09/05 07:09:27;;;;;;;;;;;;;;;;;;4947866;28;20016;-84
2023/09/05 07:11:54;;;;;;;;;;;;;;;;;;4963871;28;20001;-85
2023/09/05 07:14:20;;;;;;;;;;;;;;;;;;4960783;28;19932;-85
2023/09/05 07:16:47;;;;;;;;;;;;;;;;;;4962791;28;19926;-85
2023/09/05 07:19:14;;;;;;;;;;;;;;;;;;4961687;28;19925;-85
2023/09/05 07:21:41;;;;;;;;;;;;;;;;;;4965628;28;20035;-85
2023/09/05 07:24:07;;;;;;;;;;;;;;;;;;4960169;28;20024;-85
2023/09/05 07:26:35;;;;;;;;;;;;;;;;;;4969232;28;19972;-85
2023/09/05 07:29:02;;;;;;;;;;;;;;;;;;4968579;28;19944;-85
2023/09/05 07:31:31;;;;;;;;;;;;;;;;;;4973627;28;19930;-85
2023/09/05 07:33:58;;;;;;;;;;;;;;;;;;4986244;28;19996;-85
2023/09/05 07:36:24;;;;;;;;;;;;;;;;;;4970221;28;19930;-85
2023/09/05 07:38:51;;;;;;;;;;;;;;;;;;4981047;28;19937;-85
2023/09/05 07:41:17;;;;;;;;;;;;;;;;;;4983082;28;20020;-85
2023/09/05 07:43:45;;;;;;;;;;;;;;;;;;4975164;28;19975;-85
2023/09/05 07:46:11;;;;;;;;;;;;;;;;;;4986668;28;19994;-85
2023/09/05 07:48:38;;;;;;;;;;;;;;;;;;4982969;28;19933;-85
2023/09/05 07:51:05;;;;;;;;;;;;;;;;;;4983791;28;19926;-85
2023/09/05 07:53:33;;;;;;;;;;;;;;;;;;4986930;28;19925;-85
2023/09/05 07:56:03;;;;;;;;;;;;;;;;;;4967307;28;20004;-85
2023/09/05 07:58:30;;;;;;;;;;;;;;;;;;4986104;28;19956;-85
2023/09/05 08:00:56;;;;;;;;;;;;;;;;;;4987091;28;19935;-85
2023/09/05 08:03:29;;;;;;;;;;;;;;;;;;4986176;28;19925;-85
2023/09/05 08:05:57;;;;;;;;;;;;;;;;;;4978762;28;20383;-85
2023/09/05 08:08:24;;;;;;;;;;;;;;;;;;4988917;28;19980;-85
2023/09/05 08:10:51;;;;;;;;;;;;;;;;;;4971970;28;20001;-85
2023/09/05 08:13:18;;;;;;;;;;;;;;;;;;4964812;28;20028;-85
2023/09/05 08:15:51;;;;;;;;;;;;;;;;;;4988134;28;19922;-85
2023/09/05 08:18:19;;;;;;;;;;;;;;;;;;4987535;28;20443;-85
2023/09/05 08:20:46;;;;;;;;;;;;;;;;;;4984836;28;19965;-85
2023/09/05 08:23:12;;;;;;;;;;;;;;;;;;4969787;28;20304;-84
2023/09/05 08:25:39;;;;;;;;;;;;;;;;;;4981448;28;20307;-85
2023/09/05 08:28:09;;;;;;;;;;;;;;;;;;4968487;28;19926;-85
2023/09/05 08:30:36;;;;;;;;;;;;;;;;;;4984927;28;20024;-85
2023/09/05 08:33:03;;;;;;;;;;;;;;;;;;4976037;28;19931;-85
2023/09/05 08:35:31;;;;;;;;;;;;;;;;;;4976947;28;19960;-85
2023/09/05 08:38:04;;;;;;;;;;;;;;;;;;4990966;28;19921;-85
2023/09/05 08:40:34;;;;;;;;;;;;;;;;;;4990728;28;19972;-85
2023/09/05 08:43:03;;;;;;;;;;;;;;;;;;4971612;28;19928;-85
2023/09/05 08:45:35;;;;;;;;;;;;;;;;;;4952666;28;19968;-85
2023/09/05 08:50:50;;;;;;;;;;;;;;;;;;4964966;28;20013;-85
2023/09/05 08:53:17;;;;;;;;;;;;;;;;;;4969917;28;19933;-85
2023/09/05 08:55:50;;;;;;;;;;;;;;;;;;4976457;28;19929;-85
2023/09/05 08:58:16;;;;;;;;;;;;;;;;;;4971306;28;19929;-85
2023/09/05 09:00:59;;;;;;;;;;;;;;;;;;4998712;28;19936;-85
2023/09/05 09:03:34;;;;;;;;;;;;;;;;;;4983832;28;19929;-85
2023/09/05 09:06:01;;;;;;;;;;;;;;;;;;4985919;28;19928;-85
2023/09/05 09:08:28;;;;;;;;;;;;;;;;;;4973479;28;20017;-85
2023/09/05 09:10:59;;;;;;;;;;;;;;;;;;5007934;28;19921;-85
2023/09/05 09:13:27;;;;;;;;;;;;;;;;;;4988476;28;19975;-85
2023/09/05 09:16:04;;;;;;;;;;;;;;;;;;5002817;28;19922;-85
2023/09/05 09:18:34;;;;;;;;;;;;;;;;;;4995428;28;19960;-85
2023/09/05 09:21:19;;;;;;;;;;;;;;;;;;4933562;28;19973;-85
2023/09/05 09:23:55;;;;;;;;;;;;;;;;;;4923088;29;20870;-85
2023/09/05 09:26:26;;;;;;;;;;;;;;;;;;4897544;29;19926;-85
2023/09/05 09:29:16;;;;;;;;;;;;;;;;;;4913649;29;20370;-85
2023/09/05 09:32:17;;;;;;;;;;;;;;;;;;;;;
2023/09/05 09:34:56;;;;;;;;;;;;;;;;;;4911189;29;19956;-85
2023/09/05 09:37:32;;;;;;;;;;;;;;;;;;4912665;29;19927;-85
2023/09/05 09:40:05;;;;;;;;;;;;;;;;;;4930090;29;19926;-85
2023/09/05 09:42:45;;;;;;;;;;;;;;;;;;4921076;28;19933;-85
2023/09/05 09:45:27;;;;;;;;;;;;;;;;;;4918999;29;19926;-85
2023/09/05 09:47:55;;;;;;;;;;;;;;;;;;4900177;29;20098;-85
2023/09/05 09:50:27;;;;;;;;;;;;;;;;;;4915061;29;20414;-86
2023/09/05 09:52:55;;;;;;;;;;;;;;;;;;4964352;28;19965;-86
2023/09/05 09:55:23;;;;;;;;;;;;;;;;;;4998694;28;20019;-85
2023/09/05 09:57:55;;;;;;;;;;;;;;;;;;4969218;28;19930;-85
2023/09/05 10:00:24;;;;;;;;;;;;;;;;;;4987185;28;19930;-85
2023/09/05 10:02:50;;;;;;;;;;;;;;;;;;4973723;28;19926;-85
2023/09/05 10:05:18;;;;;;;;;;;;;;;;;;4970890;28;19965;-85
2023/09/05 10:07:44;;;;;;;;;;;;;;;;;;4986337;28;19977;-85
2023/09/05 10:10:14;;;;;;;;;;;;;;;;;;4990826;28;19921;-86
2023/09/05 10:12:42;;;;;;;;;;;;;;;;;;4984894;28;19921;-85
2023/09/05 10:15:10;;;;;;;;;;;;;;;;;;4989194;28;20372;-85
2023/09/05 10:17:37;;;;;;;;;;;;;;;;;;5003405;28;19936;-85
2023/09/05 10:20:05;;;;;;;;;;;;;;;;;;4983059;28;20410;-85
2023/09/05 10:22:33;;;;;;;;;;;;;;;;;;4989463;28;19929;-86
2023/09/05 10:25:00;;;;;;;;;;;;;;;;;;4985664;28;20431;-86
2023/09/05 10:27:38;;;;;;;;;;;;;;;;;;5001346;28;19969;-85
2023/09/05 10:30:04;;;;;;;;;;;;;;;;;;4966855;28;19932;-86
2023/09/05 10:32:32;;;;;;;;;;;;;;;;;;4970516;28;19970;-85
2023/09/05 10:35:05;;;;;;;;;;;;;;;;;;4971322;28;19997;-85
2023/09/05 10:37:32;;;;;;;;;;;;;;;;;;4968335;28;20404;-86
2023/09/05 10:40:00;;;;;;;;;;;;;;;;;;4974792;28;20233;-85
2023/09/05 10:42:26;;;;;;;;;;;;;;;;;;4999901;28;20032;-86
2023/09/05 10:44:53;;;;;;;;;;;;;;;;;;4969870;28;20403;-85
2023/09/05 10:47:21;;;;;;;;;;;;;;;;;;5009075;28;19925;-85
2023/09/05 10:49:48;;;;;;;;;;;;;;;;;;4989410;28;19973;-86
2023/09/05 10:52:22;;;;;;;;;;;;;;;;;;4969187;28;20329;-85
2023/09/05 10:55:00;;;;;;;;;;;;;;;;;;4983925;28;19975;-86
2023/09/05 10:57:32;;;;;;;;;;;;;;;;;;4965914;28;19933;-85
2023/09/05 10:59:58;;;;;;;;;;;;;;;;;;4971801;28;20058;-85
2023/09/05 11:02:35;;;;;;;;;;;;;;;;;;;;;
2023/09/05 11:05:04;;;;;;;;;;;;;;;;;;4975722;28;19925;-86
2023/09/05 11:07:43;;;;;;;;;;;;;;;;;;4972192;28;19969;-86
2023/09/05 11:10:14;;;;;;;;;;;;;;;;;;4987882;28;19929;-86
2023/09/05 11:12:47;;;;;;;;;;;;;;;;;;4988980;28;19926;-85
2023/09/05 11:15:16;;;;;;;;;;;;;;;;;;4971316;28;19922;-86
2023/09/05 11:17:43;;;;;;;;;;;;;;;;;;4948026;28;19930;-86
2023/09/05 11:20:10;;;;;;;;;;;;;;;;;;4926537;29;19927;-86
2023/09/05 11:22:39;;;;;;;;;;;;;;;;;;4933600;29;20020;-86
2023/09/05 11:25:18;;;;;;;;;;;;;;;;;;4909903;28;19931;-85
2023/09/05 11:27:51;;;;;;;;;;;;;;;;;;4944487;28;19930;-85
2023/09/05 11:30:28;;;;;;;;;;;;;;;;;;4924664;28;20021;-85
2023/09/05 11:33:05;;;;;;;;;;;;;;;;;;;;;
2023/09/05 11:35:35;;;;;;;;;;;;;;;;;;4955213;28;20002;-86
2023/09/05 11:38:03;;;;;;;;;;;;;;;;;;4913892;28;19931;-86
2023/09/05 11:40:35;;;;;;;;;;;;;;;;;;4927880;28;20792;-86
2023/09/05 11:43:11;;;;;;;;;;;;;;;;;;4945101;28;19927;-86
2023/09/05 11:45:50;;;;;;;;;;;;;;;;;;4940216;29;20022;-85
2023/09/05 11:48:23;;;;;;;;;;;;;;;;;;4965760;28;19930;-86
2023/09/05 11:51:08;;;;;;;;;;;;;;;;;;4985672;28;19972;-86
2023/09/05 11:53:36;;;;;;;;;;;;;;;;;;4976196;28;19932;-86
2023/09/05 11:56:16;;;;;;;;;;;;;;;;;;5010896;28;20346;-86
2023/09/05 11:58:43;;;;;;;;;;;;;;;;;;4971733;28;20056;-86
2023/09/05 12:01:19;;;;;;;;;;;;;;;;;;4990852;28;19929;-86
2023/09/05 12:03:47;;;;;;;;;;;;;;;;;;4974486;28;19934;-85
2023/09/05 12:06:24;;;;;;;;;;;;;;;;;;4971146;28;19925;-85
2023/09/05 12:08:54;;;;;;;;;;;;;;;;;;4987827;28;20013;-86
2023/09/05 12:11:29;;;;;;;;;;;;;;;;;;4989581;28;19929;-86
2023/09/05 12:13:56;;;;;;;;;;;;;;;;;;4991763;28;20265;-85
2023/09/05 12:16:44;;;;;;;;;;;;;;;;;;4990111;28;19929;-85
2023/09/05 12:19:30;;;;;;;;;;;;;;;;;;5001650;28;20370;-85
2023/09/05 12:22:00;;;;;;;;;;;;;;;;;;4989350;28;19925;-86
2023/09/05 12:24:31;;;;;;;;;;;;;;;;;;4990138;28;19952;-86
2023/09/05 12:27:00;;;;;;;;;;;;;;;;;;4988900;28;20337;-85
2023/09/05 12:29:30;;;;;;;;;;;;;;;;;;4985161;28;19987;-85
2023/09/05 12:35:20;;;;;;;;;;;;;;;;;;5014304;23;20354;-85
2023/09/05 12:37:48;;;;;;;;;;;;;;;;;;4950262;28;19926;-86
2023/09/05 12:40:17;;;;;;;;;;;;;;;;;;4950386;28;19926;-85
2023/09/05 12:42:47;;;;;;;;;;;;;;;;;;4952861;28;19936;-85
2023/09/05 12:45:14;;;;;;;;;;;;;;;;;;4956090;28;19929;-85
2023/09/05 12:47:41;;;;;;;;;;;;;;;;;;4955655;28;19929;-85
2023/09/05 12:50:29;;;;;;;;;;;;;;;;;;4983336;28;19925;-85
2023/09/05 12:53:01;;;;;;;;;;;;;;;;;;4973617;28;20403;-86
2023/09/05 12:55:49;;;;;;;;;;;;;;;;;;4958531;28;19930;-85
2023/09/05 12:58:16;;;;;;;;;;;;;;;;;;4937238;28;19926;-86
2023/09/05 13:01:05;;;;;;;;;;;;;;;;;;4945831;28;19926;-85
2023/09/05 13:03:46;;;;;;;;;;;;;;;;;;4955095;28;20017;-85
2023/09/05 13:06:17;;;;;;;;;;;;;;;;;;4964552;28;19926;-85
2023/09/05 13:08:44;;;;;;;;;;;;;;;;;;4954300;28;20417;-86
2023/09/05 13:11:28;;;;;;;;;;;;;;;;;;4965086;28;19931;-85
2023/09/05 13:13:58;;;;;;;;;;;;;;;;;;4948879;28;19930;-86
2023/09/05 13:16:31;;;;;;;;;;;;;;;;;;4932410;28;19937;-85
2023/09/05 13:19:01;;;;;;;;;;;;;;;;;;4932162;28;20059;-86
2023/09/05 13:21:32;;;;;;;;;;;;;;;;;;4925144;28;19972;-86
2023/09/05 13:23:58;;;;;;;;;;;;;;;;;;4950940;28;20381;-85
2023/09/05 13:26:28;;;;;;;;;;;;;;;;;;4945967;28;19934;-86
2023/09/05 13:29:00;;;;;;;;;;;;;;;;;;4982034;28;19934;-86
2023/09/05 13:31:27;;;;;;;;;;;;;;;;;;4979953;28;19926;-87
2023/09/05 13:33:54;;;;;;;;;;;;;;;;;;4948893;28;20051;-86
2023/09/05 13:36:23;;;;;;;;;;;;;;;;;;4997486;28;19925;-85
2023/09/05 13:38:53;;;;;;;;;;;;;;;;;;4986870;28;19933;-86
2023/09/05 13:41:33;;;;;;;;;;;;;;;;;;5018600;28;19932;-86
2023/09/05 13:44:01;;;;;;;;;;;;;;;;;;4992703;28;20256;-86
2023/09/05 13:46:27;;;;;;;;;;;;;;;;;;5004355;28;20379;-86
2023/09/05 13:48:54;;;;;;;;;;;;;;;;;;4973501;28;20016;-86
2023/09/05 13:51:22;;;;;;;;;;;;;;;;;;5009454;28;19937;-86
2023/09/05 13:53:56;;;;;;;;;;;;;;;;;;4990195;28;20046;-86
2023/09/05 13:56:27;;;;;;;;;;;;;;;;;;5014114;28;19925;-86
2023/09/05 13:58:53;;;;;;;;;;;;;;;;;;4974360;28;19925;-85
2023/09/05 14:01:19;;;;;;;;;;;;;;;;;;4970811;28;20012;-87
2023/09/05 14:03:49;;;;;;;;;;;;;;;;;;4974290;28;19936;-86
2023/09/05 14:09:40;;;;;;;;;;;;;;;;;;4942174;28;19934;-86
2023/09/05 14:23:40;;;;;;;;;;;;;;;;;;;;;
2023/09/05 14:30:26;;;;;;;;;;;;;;;;;;6132109;23;20607;-90
2023/09/05 14:32:54;;;;;;;;;;;;;;;;;;6099501;23;20317;-85
2023/09/05 14:35:22;;;;;;;;;;;;;;;;;;6095803;23;19921;-85
2023/09/05 14:38:07;;;;;;;;;;;;;;;;;;6123787;23;19920;-85
2023/09/05 14:40:40;;;;;;;;;;;;;;;;;;6131568;23;19927;-85
2023/09/05 14:43:19;;;;;;;;;;;;;;;;;;6158273;23;19927;-85
2023/09/05 14:45:47;;;;;;;;;;;;;;;;;;6179182;23;19920;-85
2023/09/05 14:51:18;;;;;;;;;;;;;;;;;;6222158;23;19952;-85
2023/09/05 14:54:00;;;;;;;;;;;;;;;;;;;;;
2023/09/05 14:59:27;;;;;;;;;;;;;;;;;;6279135;22;19954;-86
2023/09/05 15:07:50;;;;;;;;;;;;;;;;;;6228431;23;19959;-85
2023/09/05 15:10:19;;;;;;;;;;;;;;;;;;6239292;23;19919;-85
2023/09/05 15:16:18;;;;;;;;;;;;;;;;;;6190452;23;19977;-85
2023/09/05 15:21:48;;;;;;;;;;;;;;;;;;6148141;23;19984;-87
2023/09/05 15:24:35;;;;;;;;;;;;;;;;;;;;;
2023/09/05 15:27:05;;;;;;;;;;;;;;;;;;6210819;23;19919;-85
2023/09/05 15:32:41;;;;;;;;;;;;;;;;;;6222111;22;19926;-85
2023/09/05 15:35:16;;;;;;;;;;;;;;;;;;6246027;22;20381;-85
2023/09/05 15:37:49;;;;;;;;;;;;;;;;;;6268193;22;19919;-86
2023/09/05 15:40:26;;;;;;;;;;;;;;;;;;6266080;22;20255;-85
2023/09/05 15:46:07;;;;;;;;;;;;;;;;;;6179319;23;20324;-85
2023/09/05 15:48:34;;;;;;;;;;;;;;;;;;6181207;23;20261;-85
2023/09/05 15:54:17;;;;;;;;;;;;;;;;;;6203448;23;19924;-85
2023/09/05 15:56:50;;;;;;;;;;;;;;;;;;6179661;23;19965;-85
2023/09/05 15:59:31;;;;;;;;;;;;;;;;;;6175423;23;19923;-85
2023/09/05 16:05:11;;;;;;;;;;;;;;;;;;6152727;23;19959;-85
2023/09/05 16:07:38;;;;;;;;;;;;;;;;;;6154583;23;19933;-86
2023/09/05 16:10:07;;;;;;;;;;;;;;;;;;6178468;23;19926;-85
2023/09/05 16:15:41;;;;;;;;;;;;;;;;;;6194166;22;19924;-85
2023/09/05 16:18:22;;;;;;;;;;;;;;;;;;6276696;22;19922;-85
2023/09/05 16:20:50;;;;;;;;;;;;;;;;;;6246127;22;19919;-85
2023/09/05 16:23:35;;;;;;;;;;;;;;;;;;6268156;22;19922;-85
2023/09/05 16:26:14;;;;;;;;;;;;;;;;;;6299493;22;19923;-85
2023/09/05 16:28:41;;;;;;;;;;;;;;;;;;6246611;22;19919;-85
2023/09/05 16:31:07;;;;;;;;;;;;;;;;;;6272264;22;19922;-85
2023/09/05 16:33:48;;;;;;;;;;;;;;;;;;6273964;22;19927;-86
2023/09/05 16:36:25;;;;;;;;;;;;;;;;;;6272091;22;20017;-85
2023/09/05 16:38:57;;;;;;;;;;;;;;;;;;6271692;22;19923;-85
2023/09/05 16:41:29;;;;;;;;;;;;;;;;;;6247440;22;19926;-85
2023/09/05 16:44:07;;;;;;;;;;;;;;;;;;;;;
2023/09/05 16:46:45;;;;;;;;;;;;;;;;;;6253423;22;19919;-85
2023/09/05 16:49:12;;;;;;;;;;;;;;;;;;6247148;22;19930;-85
2023/09/05 16:51:44;;;;;;;;;;;;;;;;;;6246308;22;20001;-85
2023/09/05 16:54:30;;;;;;;;;;;;;;;;;;;;;
2023/09/05 16:57:01;;;;;;;;;;;;;;;;;;6259929;22;19984;-85
2023/09/05 16:59:49;;;;;;;;;;;;;;;;;;6248273;22;19926;-85
2023/09/05 17:03:13;;;;;;;;;;;;;;;;;;6207059;23;19927;-85
2023/09/05 17:05:37;;;;;;;;;;;;;;;;;;6218667;23;20383;-85
2023/09/05 17:08:06;;;;;;;;;;;;;;;;;;6208463;23;19915;-85
2023/09/05 17:13:32;;;;;;;;;;;;;;;;;;6233652;23;19919;-85
2023/09/05 17:16:00;;;;;;;;;;;;;;;;;;6208538;23;20248;-85
2023/09/05 17:18:37;;;;;;;;;;;;;;;;;;6209415;23;19920;-84
2023/09/05 17:21:15;;;;;;;;;;;;;;;;;;6234412;23;19919;-85
2023/09/05 17:23:50;;;;;;;;;;;;;;;;;;6235725;23;19946;-86
2023/09/05 17:26:26;;;;;;;;;;;;;;;;;;6234219;23;19930;-85
2023/09/05 17:29:12;;;;;;;;;;;;;;;;;;;;;
2023/09/05 17:31:38;;;;;;;;;;;;;;;;;;6231812;23;19923;-85
2023/09/05 17:34:14;;;;;;;;;;;;;;;;;;6259399;22;19915;-85
2023/09/05 17:36:50;;;;;;;;;;;;;;;;;;6215319;22;20397;-85
2023/09/05 17:39:30;;;;;;;;;;;;;;;;;;6245303;22;20362;-85
2023/09/05 17:42:07;;;;;;;;;;;;;;;;;;6217848;22;20328;-85
2023/09/05 17:47:25;;;;;;;;;;;;;;;;;;6228504;22;19930;-85
2023/09/05 17:49:57;;;;;;;;;;;;;;;;;;6216073;22;19966;-85
2023/09/05 17:52:34;;;;;;;;;;;;;;;;;;;;;
2023/09/05 17:55:03;;;;;;;;;;;;;;;;;;6239977;22;20374;-85
2023/09/05 17:57:44;;;;;;;;;;;;;;;;;;6241430;22;20344;-85
2023/09/05 18:00:36;;;;;;;;;;;;;;;;;;;;;
2023/09/05 18:03:02;;;;;;;;;;;;;;;;;;6241560;22;19951;-84
2023/09/05 18:05:29;;;;;;;;;;;;;;;;;;6214216;22;20338;-84
2023/09/05 18:07:56;;;;;;;;;;;;;;;;;;6239102;22;19946;-84
2023/09/05 18:10:44;;;;;;;;;;;;;;;;;;6217216;22;19996;-84
2023/09/05 18:13:13;;;;;;;;;;;;;;;;;;6240242;22;19946;-85
2023/09/05 18:15:39;;;;;;;;;;;;;;;;;;6215500;22;19919;-84
2023/09/05 18:18:06;;;;;;;;;;;;;;;;;;6214509;22;19919;-83
2023/09/05 18:20:33;;;;;;;;;;;;;;;;;;6240825;22;19981;-84
2023/09/05 18:23:00;;;;;;;;;;;;;;;;;;6240259;22;19919;-84
2023/09/05 18:25:28;;;;;;;;;;;;;;;;;;6239833;22;19919;-83
2023/09/05 18:27:54;;;;;;;;;;;;;;;;;;6296258;22;19929;-84
2023/09/05 18:30:20;;;;;;;;;;;;;;;;;;6243908;22;20073;-84
2023/09/05 18:32:47;;;;;;;;;;;;;;;;;;6298659;22;20061;-84
2023/09/05 18:35:14;;;;;;;;;;;;;;;;;;6272173;22;20332;-83
2023/09/05 18:37:40;;;;;;;;;;;;;;;;;;6245882;22;19972;-84